Ana Sayfa
METAR-TAF:

METAR-TAF

Havaalanları :

Ørsta-Volda, Norveç

Enlem: 62-11N, Boylam: 006-04E, yükseklik: 7 m

Güncel hava durumu gözlemi

Rapor saat 22:20 UTC de 5 saat ve 31 dakika önce yapıldı.
Rüzgar doğu/kuzeydoğudan 14 kt ve 28 kt'a kadar ani rüzgarlar, kuzey ve doğu arasında değişken
Sıcaklık 3°C
Nem 48%
Basınç 992 hPa
Görüş mesafesi 10 km veya daha fazla
4500 ft yükseklikte az bulutlu
5500 ft yükseklikte parçalı çok bulutlu
hafif kar sağanakları

METAR: ENOV 272220Z 06014G28KT 010V100 9999 -SHSN FEW045 BKN055 03/M07 Q0992 RMK WIND 2175FT 15024KT

Saat: 04:51 (03:51 UTC)


TAF: eksik

4.000'den fazla havaalanı için hava durumu gözlemleri ve tahminleri (METAR ve TAF raporları).

Kullanılabilir istasyonlar harita üzerinde sarı ve kırmızı noktalarla gösterilir.

İstasyonun adını görmek için fareyi noktanın üzerinde gezdirin.

Sonrasında hava gözlem ve tahminlerini görmek için tıklayın.

Haritayı değiştirmek için: yaklaştırmak için siyah artı işaretli yeşil düğmeye ve uzaklaştırmak için de eksi işaretli düğmeye hızla tıklayın; bitişik haritalar için yeşil okları kullanın.


METAR-TAF: